Time;durP1;ratioP1;P1;durP2;ratioP2;P2;SDS_P1;SDS_P2;PMS_P1;PMS_P2;Temp;Humidity;BMP_temperature;BMP_pressure;BME280_temperature;BME280_humidity;BME280_pressure;Samples;Min_cycle;Max_cycle;Signal;HPM_P1;HPM_P2
2021/09/05 00:02:57;;;;;;;5.22;1.92;;;14.50;99.90;;;;;;20593370;28;20047;-81
2021/09/05 00:12:59;;;;;;;5.85;2.60;;;14.40;99.90;;;;;;20618458;28;20043;-80
2021/09/05 00:23:03;;;;;;;5.72;1.88;;;14.20;99.90;;;;;;20547773;28;20050;-80
2021/09/05 00:33:07;;;;;;;7.13;1.80;;;14.20;99.90;;;;;;20571872;28;20045;-80
2021/09/05 00:43:08;;;;;;;10.93;2.10;;;14.20;99.90;;;;;;20545801;28;20039;-80
2021/09/05 00:53:11;;;;;;;7.88;2.53;;;14.10;99.90;;;;;;20560240;28;20044;-80
2021/09/05 01:03:12;;;;;;;7.13;2.90;;;14.00;99.90;;;;;;20572361;28;20065;-79
2021/09/05 01:13:13;;;;;;;5.07;1.90;;;13.90;99.90;;;;;;20547201;28;20128;-80
2021/09/05 01:23:16;;;;;;;5.20;1.75;;;13.80;99.90;;;;;;20585902;28;20050;-79
2021/09/05 01:33:17;;;;;;;10.13;2.78;;;13.70;99.90;;;;;;20534612;28;20038;-80
2021/09/05 01:43:18;;;;;;;7.03;2.70;;;13.70;99.90;;;;;;20525094;28;20054;-79
2021/09/05 01:53:19;;;;;;;8.38;2.40;;;13.60;99.90;;;;;;20525625;28;20414;-80
2021/09/05 02:03:20;;;;;;;6.88;2.47;;;13.50;99.90;;;;;;20542522;28;20051;-79
2021/09/05 02:13:21;;;;;;;9.05;2.15;;;13.40;99.90;;;;;;20578354;28;20046;-79
2021/09/05 02:23:22;;;;;;;10.02;3.05;;;13.30;99.90;;;;;;20568638;28;20697;-80
2021/09/05 02:33:23;;;;;;;5.97;2.45;;;13.30;99.90;;;;;;20880860;22;20417;-44
2021/09/05 02:43:25;;;;;;;7.28;3.17;;;13.20;99.90;;;;;;20617250;28;20061;-44
2021/09/05 02:53:26;;;;;;;7.97;2.97;;;13.10;99.90;;;;;;20628521;28;20079;-44
2021/09/05 03:03:27;;;;;;;8.48;2.55;;;13.00;99.90;;;;;;20624895;28;20046;-44
2021/09/05 03:13:28;;;;;;;10.63;2.60;;;12.90;99.90;;;;;;20625095;28;20040;-44
2021/09/05 03:23:29;;;;;;;5.30;2.45;;;12.80;99.90;;;;;;20616588;28;20043;-44
2021/09/05 03:33:31;;;;;;;8.05;2.60;;;12.80;99.90;;;;;;20600872;28;20060;-44
2021/09/05 03:43:32;;;;;;;10.52;2.97;;;12.70;99.90;;;;;;20617307;28;20058;-44
2021/09/05 03:53:33;;;;;;;10.18;3.20;;;12.70;99.90;;;;;;20636216;28;20375;-44
2021/09/05 04:03:34;;;;;;;6.63;3.33;;;12.60;99.90;;;;;;20625488;28;20051;-44
2021/09/05 04:13:35;;;;;;;8.95;2.90;;;12.70;99.90;;;;;;20612262;28;20070;-44
2021/09/05 04:23:36;;;;;;;9.75;2.80;;;12.70;99.90;;;;;;20591407;28;20053;-44
2021/09/05 04:33:37;;;;;;;6.70;2.95;;;12.70;99.90;;;;;;20620876;28;20063;-44
2021/09/05 04:43:39;;;;;;;9.77;3.45;;;12.70;99.90;;;;;;20624931;28;20050;-44
2021/09/05 04:53:40;;;;;;;7.35;3.17;;;12.60;99.90;;;;;;20632038;28;20046;-44
2021/09/05 05:03:44;;;;;;;10.15;3.03;;;12.60;99.90;;;;;;20601869;28;20049;-44
2021/09/05 05:13:46;;;;;;;5.32;2.50;;;12.60;99.90;;;;;;20609431;28;20377;-44
2021/09/05 05:23:47;;;;;;;11.43;2.75;;;12.60;99.90;;;;;;20627641;28;20047;-44
2021/09/05 05:33:48;;;;;;;8.45;3.80;;;12.60;99.90;;;;;;20619007;28;20077;-44
2021/09/05 05:43:49;;;;;;;7.22;2.83;;;12.60;99.90;;;;;;20619824;28;20047;-44
2021/09/05 05:53:50;;;;;;;7.80;2.15;;;12.70;99.90;;;;;;20595318;28;20045;-44
2021/09/05 06:03:51;;;;;;;7.80;2.67;;;12.70;99.90;;;;;;20596716;28;20052;-44
2021/09/05 06:13:54;;;;;;;5.38;2.65;;;12.80;99.90;;;;;;20616453;28;20038;-44
2021/09/05 06:23:55;;;;;;;9.25;2.63;;;12.90;99.90;;;;;;20619540;28;20050;-44
2021/09/05 06:33:56;;;;;;;9.30;3.55;;;12.90;99.90;;;;;;20625566;28;20038;-44
2021/09/05 06:43:58;;;;;;;11.52;2.75;;;13.10;99.90;;;;;;20607777;28;20037;-44
2021/09/05 06:53:59;;;;;;;9.90;3.10;;;13.20;99.90;;;;;;20608173;28;20041;-44
2021/09/05 07:04:00;;;;;;;10.48;2.63;;;13.30;99.90;;;;;;20596116;28;20583;-44
2021/09/05 07:14:01;;;;;;;9.05;3.65;;;13.60;99.90;;;;;;20618607;28;20036;-44
2021/09/05 07:24:02;;;;;;;9.98;2.92;;;13.80;99.90;;;;;;20626212;28;20046;-44
2021/09/05 07:34:04;;;;;;;6.43;2.47;;;14.00;99.90;;;;;;20611299;28;20496;-44
2021/09/05 07:44:05;;;;;;;12.93;3.28;;;14.20;99.90;;;;;;20611994;28;20417;-44
2021/09/05 07:54:06;;;;;;;7.82;2.95;;;14.40;99.90;;;;;;20620385;28;20500;-44
2021/09/05 08:04:07;;;;;;;5.78;2.30;;;14.70;99.90;;;;;;20625330;28;20305;-44
2021/09/05 08:14:08;;;;;;;7.60;2.75;;;14.90;99.90;;;;;;20626257;28;20042;-44
2021/09/05 08:24:09;;;;;;;6.93;2.47;;;15.20;99.90;;;;;;20624399;28;20580;-44
2021/09/05 08:34:10;;;;;;;7.85;2.28;;;15.50;99.90;;;;;;20623186;28;20055;-44
2021/09/05 08:44:11;;;;;;;6.43;2.85;;;15.90;99.90;;;;;;20637852;28;20719;-44
2021/09/05 08:54:16;;;;;;;5.45;2.15;;;16.40;99.90;;;;;;20628020;28;20485;-44
2021/09/05 09:04:17;;;;;;;6.95;2.25;;;16.80;99.90;;;;;;20625739;28;20058;-44
2021/09/05 09:14:22;;;;;;;7.03;2.83;;;17.30;99.90;;;;;;20621652;28;20052;-44
2021/09/05 09:24:24;;;;;;;5.95;1.88;;;17.80;99.90;;;;;;20636676;28;20429;-44
2021/09/05 09:34:25;;;;;;;4.00;1.83;;;18.10;99.90;;;;;;20627581;28;20057;-44
2021/09/05 09:44:28;;;;;;;4.32;1.63;;;18.60;99.90;;;;;;20630167;28;20585;-44
2021/09/05 09:54:31;;;;;;;11.38;2.35;;;18.80;99.90;;;;;;20620220;28;20042;-44
2021/09/05 10:04:33;;;;;;;5.93;2.28;;;19.00;99.90;;;;;;20646134;28;20799;-45
2021/09/05 10:14:38;;;;;;;4.28;1.42;;;19.30;99.90;;;;;;20622295;28;20153;-44
2021/09/05 10:24:47;;;;;;;4.28;1.42;;;19.60;99.90;;;;;;20600380;28;20045;-44
2021/09/05 10:34:48;;;;;;;5.55;1.67;;;19.70;99.90;;;;;;20628864;28;20493;-45
2021/09/05 10:45:08;;;;;;;4.43;1.60;;;20.00;99.90;;;;;;20608914;28;20131;-45
2021/09/05 10:55:11;;;;;;;4.07;1.65;;;20.50;99.90;;;;;;20646035;28;20509;-45
2021/09/05 11:05:18;;;;;;;5.05;1.73;;;20.60;99.90;;;;;;20631455;28;20041;-45
2021/09/05 11:15:20;;;;;;;;;;;21.10;99.90;;;;;;20624724;28;20056;-45
2021/09/05 11:25:27;;;;;;;4.22;1.33;;;21.60;99.90;;;;;;20639147;28;19926;-45
2021/09/05 11:35:39;;;;;;;2.92;1.13;;;21.70;99.90;;;;;;20625268;28;20054;-45
2021/09/05 11:45:41;;;;;;;5.15;1.77;;;22.10;99.90;;;;;;20607338;28;20090;-45
2021/09/05 11:55:51;;;;;;;4.30;1.48;;;22.30;99.90;;;;;;20611737;28;20406;-45
2021/09/05 12:05:56;;;;;;;4.63;2.20;;;22.60;99.90;;;;;;20648147;28;20245;-45
2021/09/05 12:15:57;;;;;;;3.28;1.42;;;23.10;99.90;;;;;;20637917;28;20045;-45
2021/09/05 12:26:07;;;;;;;5.63;1.85;;;22.90;99.90;;;;;;20623321;28;20042;-45
2021/09/05 12:36:15;;;;;;;4.00;1.60;;;22.70;99.90;;;;;;20622624;28;20314;-45
2021/09/05 12:46:20;;;;;;;4.50;1.60;;;23.30;99.90;;;;;;20641731;28;20076;-45
2021/09/05 12:56:24;;;;;;;3.50;1.30;;;23.50;99.90;;;;;;20603985;28;20315;-45
2021/09/05 13:06:29;;;;;;;4.17;1.50;;;24.00;99.90;;;;;;20587142;28;20069;-45
2021/09/05 13:16:30;;;;;;;5.55;2.35;;;24.00;99.90;;;;;;20639292;28;20325;-45
2021/09/05 13:26:32;;;;;;;3.75;1.83;;;23.80;99.90;;;;;;20638285;28;20472;-45
2021/09/05 13:36:33;;;;;;;6.45;2.67;;;24.60;99.90;;;;;;20571855;28;20081;-45
2021/09/05 13:46:35;;;;;;;4.00;1.50;;;24.40;99.90;;;;;;20572699;28;20059;-45
2021/09/05 13:56:39;;;;;;;4.60;1.98;;;24.90;99.90;;;;;;20539722;28;20381;-45
2021/09/05 14:06:40;;;;;;;3.63;1.27;;;25.40;99.90;;;;;;20579284;28;20050;-45
2021/09/05 14:16:48;;;;;;;3.88;1.50;;;24.30;99.90;;;;;;20565148;28;20054;-45
2021/09/05 14:26:59;;;;;;;3.72;2.15;;;24.60;99.90;;;;;;20553855;28;20034;-45
2021/09/05 14:57:42;;;;;;;3.50;1.80;;;23.60;99.90;;;;;;20563279;28;20279;-45
2021/09/05 15:18:04;;;;;;;4.25;1.67;;;23.10;99.90;;;;;;20541188;28;20034;-45
2021/09/05 15:58:39;;;;;;;3.17;1.42;;;22.90;99.90;;;;;;20631232;28;20058;-45
2021/09/05 16:19:01;;;;;;;4.63;1.42;;;22.30;99.90;;;;;;20614275;28;20557;-45
2021/09/05 16:29:07;;;;;;;5.63;2.00;;;22.10;99.90;;;;;;20599850;28;20034;-45
2021/09/05 16:49:30;;;;;;;5.03;1.67;;;21.70;99.90;;;;;;20599188;28;20125;-44
2021/09/05 16:59:31;;;;;;;5.65;2.10;;;21.60;99.90;;;;;;20617360;28;20046;-45
2021/09/05 17:09:32;;;;;;;4.22;1.73;;;21.40;99.90;;;;;;20632451;28;20058;-45
2021/09/05 17:19:34;;;;;;;4.82;2.20;;;21.30;99.90;;;;;;20614320;28;20052;-45
2021/09/05 17:29:38;;;;;;;6.82;2.00;;;21.10;99.90;;;;;;20611390;28;20061;-45
2021/09/05 17:39:39;;;;;;;6.18;1.92;;;21.00;99.90;;;;;;20628258;28;20047;-45
2021/09/05 17:49:42;;;;;;;4.88;1.85;;;20.80;99.90;;;;;;20611708;28;20046;-45
2021/09/05 17:59:43;;;;;;;5.05;2.33;;;20.60;99.90;;;;;;20610403;28;20053;-45
2021/09/05 18:09:46;;;;;;;3.95;2.00;;;20.40;99.90;;;;;;20619653;28;20367;-45
2021/09/05 18:19:47;;;;;;;4.28;2.03;;;20.10;99.90;;;;;;20598574;28;20564;-45
2021/09/05 18:29:49;;;;;;;6.00;1.90;;;19.70;99.90;;;;;;20613851;28;20580;-45
2021/09/05 18:39:52;;;;;;;4.25;1.85;;;19.40;99.90;;;;;;20601867;28;20043;-45
2021/09/05 18:49:53;;;;;;;5.63;2.40;;;19.00;99.90;;;;;;20600823;28;20043;-45
2021/09/05 18:59:57;;;;;;;5.72;2.08;;;18.70;99.90;;;;;;20629222;28;20061;-45
2021/09/05 19:09:58;;;;;;;5.03;1.65;;;18.40;99.90;;;;;;20639714;28;20042;-45
2021/09/05 19:20:00;;;;;;;5.50;2.40;;;18.20;99.90;;;;;;20603083;28;20043;-44
2021/09/05 19:30:03;;;;;;;6.55;2.28;;;18.10;99.90;;;;;;20642303;28;20042;-45
2021/09/05 19:40:06;;;;;;;4.85;2.05;;;18.00;99.90;;;;;;20632344;28;20176;-45
2021/09/05 19:50:08;;;;;;;6.25;2.47;;;17.80;99.90;;;;;;20622453;28;20038;-44
2021/09/05 20:00:10;;;;;;;7.70;2.47;;;17.50;99.90;;;;;;20626496;28;20442;-45
2021/09/05 20:10:16;;;;;;;8.75;2.10;;;17.40;99.90;;;;;;20625943;28;20056;-44
2021/09/05 20:20:17;;;;;;;4.60;2.05;;;17.30;99.90;;;;;;20629331;28;20133;-44
2021/09/05 20:30:20;;;;;;;7.05;2.83;;;17.20;99.90;;;;;;20627640;28;20034;-45
2021/09/05 20:40:25;;;;;;;7.05;3.03;;;17.00;99.90;;;;;;20624662;28;20054;-44
2021/09/05 20:50:29;;;;;;;5.53;2.67;;;16.90;99.90;;;;;;20600867;28;20498;-44
2021/09/05 21:00:30;;;;;;;6.15;2.45;;;16.80;99.90;;;;;;20648437;28;20054;-45
2021/09/05 21:10:34;;;;;;;7.05;2.67;;;16.60;99.90;;;;;;20598593;28;20402;-44
2021/09/05 21:20:36;;;;;;;6.53;2.45;;;16.40;99.90;;;;;;20631601;28;20054;-44
2021/09/05 21:30:37;;;;;;;6.55;2.60;;;16.40;99.90;;;;;;20621315;28;20046;-45
2021/09/05 21:40:39;;;;;;;6.95;2.80;;;16.20;99.90;;;;;;20590097;28;20042;-44
2021/09/05 21:50:40;;;;;;;4.75;2.35;;;16.10;99.90;;;;;;20613587;28;20047;-44
2021/09/05 22:00:41;;;;;;;7.78;3.03;;;16.00;99.90;;;;;;20622895;28;20061;-44
2021/09/05 22:10:45;;;;;;;6.00;2.65;;;15.90;99.90;;;;;;20600006;28;20087;-45
2021/09/05 22:20:47;;;;;;;14.88;3.38;;;15.70;99.90;;;;;;20625335;28;20077;-44
2021/09/05 22:30:48;;;;;;;8.27;3.15;;;15.60;99.90;;;;;;20627239;28;20633;-44
2021/09/05 22:40:51;;;;;;;9.10;2.95;;;15.60;99.90;;;;;;20613877;28;20050;-44
2021/09/05 22:50:52;;;;;;;5.05;2.25;;;15.50;99.90;;;;;;20614708;28;20423;-44
2021/09/05 23:00:53;;;;;;;9.65;3.45;;;15.40;99.90;;;;;;20618029;28;20038;-44
2021/09/05 23:10:55;;;;;;;7.85;2.65;;;15.20;99.90;;;;;;20593089;28;20049;-44
2021/09/05 23:20:57;;;;;;;7.18;2.80;;;15.10;99.90;;;;;;20628973;28;20490;-44
2021/09/05 23:31:01;;;;;;;7.68;2.78;;;15.00;99.90;;;;;;20599507;28;20626;-45
2021/09/05 23:41:02;;;;;;;9.23;3.03;;;14.90;99.90;;;;;;20610500;28;20061;-44
2021/09/05 23:51:04;;;;;;;10.35;2.63;;;14.80;99.90;;;;;;20603856;28;20030;-44
